sensor_id;sensor_type;location;lat;lon;timestamp;P1;durP1;ratioP1;P2;durP2;ratioP2
54555;SDS011;57291;37.520;15.106;2023-09-30T00:01:58;19.63;;;10.75;;
54555;SDS011;57291;37.520;15.106;2023-09-30T00:04:25;17.33;;;10.88;;
54555;SDS011;57291;37.520;15.106;2023-09-30T00:06:54;16.23;;;11.38;;
54555;SDS011;57291;37.520;15.106;2023-09-30T00:09:21;15.18;;;11.10;;
54555;SDS011;57291;37.520;15.106;2023-09-30T00:11:48;18.60;;;11.20;;
54555;SDS011;57291;37.520;15.106;2023-09-30T00:14:16;22.35;;;12.10;;
54555;SDS011;57291;37.520;15.106;2023-09-30T00:16:43;20.17;;;11.68;;
54555;SDS011;57291;37.520;15.106;2023-09-30T00:19:11;18.05;;;11.30;;
54555;SDS011;57291;37.520;15.106;2023-09-30T00:21:38;16.85;;;11.10;;
54555;SDS011;57291;37.520;15.106;2023-09-30T00:24:06;15.23;;;11.43;;
54555;SDS011;57291;37.520;15.106;2023-09-30T00:26:33;17.23;;;11.38;;
54555;SDS011;57291;37.520;15.106;2023-09-30T00:29:00;16.63;;;11.23;;
54555;SDS011;57291;37.520;15.106;2023-09-30T00:31:31;17.52;;;11.20;;
54555;SDS011;57291;37.520;15.106;2023-09-30T00:33:59;18.90;;;10.93;;
54555;SDS011;57291;37.520;15.106;2023-09-30T00:36:26;13.75;;;10.25;;
54555;SDS011;57291;37.520;15.106;2023-09-30T00:38:53;15.65;;;10.35;;
54555;SDS011;57291;37.520;15.106;2023-09-30T00:41:20;17.15;;;10.93;;
54555;SDS011;57291;37.520;15.106;2023-09-30T00:43:47;18.88;;;11.20;;
54555;SDS011;57291;37.520;15.106;2023-09-30T00:48:52;17.85;;;11.35;;
54555;SDS011;57291;37.520;15.106;2023-09-30T00:51:21;18.77;;;11.90;;
54555;SDS011;57291;37.520;15.106;2023-09-30T00:53:52;20.25;;;10.95;;
54555;SDS011;57291;37.520;15.106;2023-09-30T00:56:23;17.55;;;11.48;;
54555;SDS011;57291;37.520;15.106;2023-09-30T00:58:52;17.23;;;10.55;;
54555;SDS011;57291;37.520;15.106;2023-09-30T01:01:20;19.10;;;10.52;;
54555;SDS011;57291;37.520;15.106;2023-09-30T01:03:48;16.48;;;10.60;;
54555;SDS011;57291;37.520;15.106;2023-09-30T01:06:16;14.27;;;9.20;;
54555;SDS011;57291;37.520;15.106;2023-09-30T01:08:43;14.68;;;10.35;;
54555;SDS011;57291;37.520;15.106;2023-09-30T01:11:10;16.80;;;10.30;;
54555;SDS011;57291;37.520;15.106;2023-09-30T01:13:39;15.57;;;10.43;;
54555;SDS011;57291;37.520;15.106;2023-09-30T01:16:07;13.60;;;10.20;;
54555;SDS011;57291;37.520;15.106;2023-09-30T01:18:39;17.00;;;10.17;;
54555;SDS011;57291;37.520;15.106;2023-09-30T01:21:10;17.58;;;10.45;;
54555;SDS011;57291;37.520;15.106;2023-09-30T01:23:40;13.52;;;9.55;;
54555;SDS011;57291;37.520;15.106;2023-09-30T01:26:08;18.38;;;9.85;;
54555;SDS011;57291;37.520;15.106;2023-09-30T01:28:38;13.80;;;9.90;;
54555;SDS011;57291;37.520;15.106;2023-09-30T01:31:05;14.88;;;9.50;;
54555;SDS011;57291;37.520;15.106;2023-09-30T01:33:34;13.68;;;9.70;;
54555;SDS011;57291;37.520;15.106;2023-09-30T01:36:02;15.00;;;9.05;;
54555;SDS011;57291;37.520;15.106;2023-09-30T01:38:29;15.48;;;9.27;;
54555;SDS011;57291;37.520;15.106;2023-09-30T01:40:56;16.73;;;10.05;;
54555;SDS011;57291;37.520;15.106;2023-09-30T01:43:27;16.48;;;9.75;;
54555;SDS011;57291;37.520;15.106;2023-09-30T01:45:55;13.15;;;9.02;;
54555;SDS011;57291;37.520;15.106;2023-09-30T01:48:22;14.50;;;9.70;;
54555;SDS011;57291;37.520;15.106;2023-09-30T01:50:51;13.65;;;9.32;;
54555;SDS011;57291;37.520;15.106;2023-09-30T01:53:18;13.02;;;9.05;;
54555;SDS011;57291;37.520;15.106;2023-09-30T01:55:45;14.73;;;9.00;;
54555;SDS011;57291;37.520;15.106;2023-09-30T01:58:13;14.75;;;9.40;;
54555;SDS011;57291;37.520;15.106;2023-09-30T02:00:40;13.52;;;8.32;;
54555;SDS011;57291;37.520;15.106;2023-09-30T02:03:07;13.43;;;8.55;;
54555;SDS011;57291;37.520;15.106;2023-09-30T02:05:35;13.77;;;8.85;;
54555;SDS011;57291;37.520;15.106;2023-09-30T02:08:03;15.98;;;9.07;;
54555;SDS011;57291;37.520;15.106;2023-09-30T02:10:32;13.68;;;8.88;;
54555;SDS011;57291;37.520;15.106;2023-09-30T02:13:00;12.82;;;8.18;;
54555;SDS011;57291;37.520;15.106;2023-09-30T02:15:28;12.52;;;8.20;;
54555;SDS011;57291;37.520;15.106;2023-09-30T02:17:55;13.02;;;7.32;;
54555;SDS011;57291;37.520;15.106;2023-09-30T02:20:22;18.17;;;8.02;;
54555;SDS011;57291;37.520;15.106;2023-09-30T02:22:52;13.77;;;8.35;;
54555;SDS011;57291;37.520;15.106;2023-09-30T02:25:21;12.13;;;8.50;;
54555;SDS011;57291;37.520;15.106;2023-09-30T02:27:49;14.50;;;8.75;;
54555;SDS011;57291;37.520;15.106;2023-09-30T02:30:18;14.35;;;8.73;;
54555;SDS011;57291;37.520;15.106;2023-09-30T02:32:46;12.23;;;8.23;;
54555;SDS011;57291;37.520;15.106;2023-09-30T02:35:13;12.75;;;7.97;;
54555;SDS011;57291;37.520;15.106;2023-09-30T02:37:42;13.65;;;8.68;;
54555;SDS011;57291;37.520;15.106;2023-09-30T02:40:10;13.68;;;8.70;;
54555;SDS011;57291;37.520;15.106;2023-09-30T02:42:38;14.15;;;8.52;;
54555;SDS011;57291;37.520;15.106;2023-09-30T02:45:07;14.32;;;9.63;;
54555;SDS011;57291;37.520;15.106;2023-09-30T02:47:35;13.55;;;8.57;;
54555;SDS011;57291;37.520;15.106;2023-09-30T02:50:07;11.27;;;8.43;;
54555;SDS011;57291;37.520;15.106;2023-09-30T02:52:38;13.05;;;8.63;;
54555;SDS011;57291;37.520;15.106;2023-09-30T02:55:09;16.08;;;8.82;;
54555;SDS011;57291;37.520;15.106;2023-09-30T02:57:37;16.42;;;9.20;;
54555;SDS011;57291;37.520;15.106;2023-09-30T03:00:05;12.05;;;8.70;;
54555;SDS011;57291;37.520;15.106;2023-09-30T03:02:51;13.70;;;8.40;;
54555;SDS011;57291;37.520;15.106;2023-09-30T03:05:19;12.13;;;8.35;;
54555;SDS011;57291;37.520;15.106;2023-09-30T03:07:47;14.48;;;8.07;;
54555;SDS011;57291;37.520;15.106;2023-09-30T03:10:14;12.30;;;8.27;;
54555;SDS011;57291;37.520;15.106;2023-09-30T03:12:47;18.42;;;8.52;;
54555;SDS011;57291;37.520;15.106;2023-09-30T03:15:15;16.25;;;8.40;;
54555;SDS011;57291;37.520;15.106;2023-09-30T03:17:43;14.40;;;8.10;;
54555;SDS011;57291;37.520;15.106;2023-09-30T03:20:11;11.43;;;7.72;;
54555;SDS011;57291;37.520;15.106;2023-09-30T03:22:42;15.18;;;8.73;;
54555;SDS011;57291;37.520;15.106;2023-09-30T03:25:10;17.33;;;8.80;;
54555;SDS011;57291;37.520;15.106;2023-09-30T03:27:38;14.35;;;8.48;;
54555;SDS011;57291;37.520;15.106;2023-09-30T03:30:05;18.13;;;8.95;;
54555;SDS011;57291;37.520;15.106;2023-09-30T03:32:34;14.57;;;8.35;;
54555;SDS011;57291;37.520;15.106;2023-09-30T03:35:05;12.02;;;8.68;;
54555;SDS011;57291;37.520;15.106;2023-09-30T03:37:34;15.60;;;8.23;;
54555;SDS011;57291;37.520;15.106;2023-09-30T03:40:01;13.82;;;8.45;;
54555;SDS011;57291;37.520;15.106;2023-09-30T03:42:39;14.07;;;8.25;;
54555;SDS011;57291;37.520;15.106;2023-09-30T03:45:09;17.50;;;8.95;;
54555;SDS011;57291;37.520;15.106;2023-09-30T03:47:40;13.10;;;8.05;;
54555;SDS011;57291;37.520;15.106;2023-09-30T03:50:08;14.38;;;8.18;;
54555;SDS011;57291;37.520;15.106;2023-09-30T03:52:41;13.23;;;8.90;;
54555;SDS011;57291;37.520;15.106;2023-09-30T03:55:14;18.33;;;8.88;;
54555;SDS011;57291;37.520;15.106;2023-09-30T03:57:48;13.77;;;8.85;;
54555;SDS011;57291;37.520;15.106;2023-09-30T04:00:16;14.32;;;9.07;;
54555;SDS011;57291;37.520;15.106;2023-09-30T04:02:47;14.10;;;8.57;;
54555;SDS011;57291;37.520;15.106;2023-09-30T04:05:18;15.13;;;9.05;;
54555;SDS011;57291;37.520;15.106;2023-09-30T04:07:46;12.95;;;8.73;;
54555;SDS011;57291;37.520;15.106;2023-09-30T04:10:14;12.35;;;8.77;;
54555;SDS011;57291;37.520;15.106;2023-09-30T04:12:41;12.27;;;8.10;;
54555;SDS011;57291;37.520;15.106;2023-09-30T04:15:08;18.15;;;9.20;;
54555;SDS011;57291;37.520;15.106;2023-09-30T04:17:39;11.15;;;8.30;;
54555;SDS011;57291;37.520;15.106;2023-09-30T04:20:06;12.80;;;9.13;;
54555;SDS011;57291;37.520;15.106;2023-09-30T04:22:44;16.10;;;9.07;;
54555;SDS011;57291;37.520;15.106;2023-09-30T04:25:16;15.05;;;9.27;;
54555;SDS011;57291;37.520;15.106;2023-09-30T04:27:44;15.40;;;9.45;;
54555;SDS011;57291;37.520;15.106;2023-09-30T04:30:13;11.80;;;9.23;;
54555;SDS011;57291;37.520;15.106;2023-09-30T04:32:42;17.10;;;10.35;;
54555;SDS011;57291;37.520;15.106;2023-09-30T04:35:10;16.60;;;10.23;;
54555;SDS011;57291;37.520;15.106;2023-09-30T04:37:37;16.58;;;10.27;;
54555;SDS011;57291;37.520;15.106;2023-09-30T04:40:05;16.85;;;9.82;;
54555;SDS011;57291;37.520;15.106;2023-09-30T04:42:53;15.02;;;9.65;;
54555;SDS011;57291;37.520;15.106;2023-09-30T04:45:25;15.52;;;9.38;;
54555;SDS011;57291;37.520;15.106;2023-09-30T04:47:54;15.20;;;9.70;;
54555;SDS011;57291;37.520;15.106;2023-09-30T04:50:24;18.95;;;10.65;;
54555;SDS011;57291;37.520;15.106;2023-09-30T04:52:51;16.27;;;10.00;;
54555;SDS011;57291;37.520;15.106;2023-09-30T04:55:19;18.27;;;9.77;;
54555;SDS011;57291;37.520;15.106;2023-09-30T04:57:47;16.67;;;11.65;;
54555;SDS011;57291;37.520;15.106;2023-09-30T05:00:15;14.35;;;9.57;;
54555;SDS011;57291;37.520;15.106;2023-09-30T05:02:45;20.13;;;11.05;;
54555;SDS011;57291;37.520;15.106;2023-09-30T05:05:13;14.65;;;10.05;;
54555;SDS011;57291;37.520;15.106;2023-09-30T05:07:42;15.55;;;10.13;;
54555;SDS011;57291;37.520;15.106;2023-09-30T05:10:10;19.83;;;9.52;;
54555;SDS011;57291;37.520;15.106;2023-09-30T05:12:40;16.15;;;9.30;;
54555;SDS011;57291;37.520;15.106;2023-09-30T05:15:13;12.50;;;8.68;;
54555;SDS011;57291;37.520;15.106;2023-09-30T05:17:43;20.45;;;10.07;;
54555;SDS011;57291;37.520;15.106;2023-09-30T05:20:11;16.35;;;9.23;;
54555;SDS011;57291;37.520;15.106;2023-09-30T05:22:39;13.80;;;9.07;;
54555;SDS011;57291;37.520;15.106;2023-09-30T05:25:09;14.57;;;7.75;;
54555;SDS011;57291;37.520;15.106;2023-09-30T05:27:36;16.60;;;8.45;;
54555;SDS011;57291;37.520;15.106;2023-09-30T05:30:05;15.63;;;8.52;;
54555;SDS011;57291;37.520;15.106;2023-09-30T05:32:33;14.18;;;7.57;;
54555;SDS011;57291;37.520;15.106;2023-09-30T05:35:01;12.05;;;7.88;;
54555;SDS011;57291;37.520;15.106;2023-09-30T05:37:31;13.15;;;7.30;;
54555;SDS011;57291;37.520;15.106;2023-09-30T05:39:59;12.20;;;7.43;;
54555;SDS011;57291;37.520;15.106;2023-09-30T05:42:27;12.05;;;6.90;;
54555;SDS011;57291;37.520;15.106;2023-09-30T05:44:54;12.23;;;6.72;;
54555;SDS011;57291;37.520;15.106;2023-09-30T05:47:21;10.18;;;6.82;;
54555;SDS011;57291;37.520;15.106;2023-09-30T05:49:48;9.57;;;6.03;;
54555;SDS011;57291;37.520;15.106;2023-09-30T05:52:15;13.85;;;6.40;;
54555;SDS011;57291;37.520;15.106;2023-09-30T05:54:43;15.88;;;7.03;;
54555;SDS011;57291;37.520;15.106;2023-09-30T05:57:10;11.95;;;6.35;;
54555;SDS011;57291;37.520;15.106;2023-09-30T05:59:37;10.80;;;6.43;;
54555;SDS011;57291;37.520;15.106;2023-09-30T06:02:04;11.23;;;6.95;;
54555;SDS011;57291;37.520;15.106;2023-09-30T06:04:31;12.15;;;7.28;;
54555;SDS011;57291;37.520;15.106;2023-09-30T06:07:00;10.40;;;6.80;;
54555;SDS011;57291;37.520;15.106;2023-09-30T06:09:27;13.65;;;6.75;;
54555;SDS011;57291;37.520;15.106;2023-09-30T06:11:57;14.50;;;7.50;;
54555;SDS011;57291;37.520;15.106;2023-09-30T06:14:24;10.73;;;6.68;;
54555;SDS011;57291;37.520;15.106;2023-09-30T06:16:54;15.82;;;7.18;;
54555;SDS011;57291;37.520;15.106;2023-09-30T06:19:22;14.60;;;8.07;;
54555;SDS011;57291;37.520;15.106;2023-09-30T06:21:50;12.25;;;7.28;;
54555;SDS011;57291;37.520;15.106;2023-09-30T06:24:17;13.02;;;6.88;;
54555;SDS011;57291;37.520;15.106;2023-09-30T06:26:46;11.07;;;7.38;;
54555;SDS011;57291;37.520;15.106;2023-09-30T06:29:15;15.05;;;7.38;;
54555;SDS011;57291;37.520;15.106;2023-09-30T06:31:42;16.25;;;7.78;;
54555;SDS011;57291;37.520;15.106;2023-09-30T06:34:10;13.73;;;7.40;;
54555;SDS011;57291;37.520;15.106;2023-09-30T06:36:37;11.07;;;7.40;;
54555;SDS011;57291;37.520;15.106;2023-09-30T06:39:04;16.88;;;8.00;;
54555;SDS011;57291;37.520;15.106;2023-09-30T06:41:32;14.45;;;8.77;;
54555;SDS011;57291;37.520;15.106;2023-09-30T06:44:01;21.95;;;9.50;;
54555;SDS011;57291;37.520;15.106;2023-09-30T06:46:28;19.70;;;9.52;;
54555;SDS011;57291;37.520;15.106;2023-09-30T06:48:56;18.13;;;9.32;;
54555;SDS011;57291;37.520;15.106;2023-09-30T06:51:23;21.50;;;9.70;;
54555;SDS011;57291;37.520;15.106;2023-09-30T06:53:50;16.17;;;9.75;;
54555;SDS011;57291;37.520;15.106;2023-09-30T06:56:18;23.52;;;10.00;;
54555;SDS011;57291;37.520;15.106;2023-09-30T06:58:45;17.40;;;10.27;;
54555;SDS011;57291;37.520;15.106;2023-09-30T07:01:14;16.38;;;9.45;;
54555;SDS011;57291;37.520;15.106;2023-09-30T07:03:43;18.85;;;10.07;;
54555;SDS011;57291;37.520;15.106;2023-09-30T07:06:10;18.83;;;9.95;;
54555;SDS011;57291;37.520;15.106;2023-09-30T07:08:37;17.35;;;10.38;;
54555;SDS011;57291;37.520;15.106;2023-09-30T07:11:04;17.15;;;10.18;;
54555;SDS011;57291;37.520;15.106;2023-09-30T07:13:32;19.85;;;10.98;;
54555;SDS011;57291;37.520;15.106;2023-09-30T07:15:59;18.88;;;11.35;;
54555;SDS011;57291;37.520;15.106;2023-09-30T07:18:26;18.77;;;11.52;;
54555;SDS011;57291;37.520;15.106;2023-09-30T07:20:54;23.25;;;10.38;;
54555;SDS011;57291;37.520;15.106;2023-09-30T07:23:21;23.35;;;10.23;;
54555;SDS011;57291;37.520;15.106;2023-09-30T07:25:48;21.17;;;10.68;;
54555;SDS011;57291;37.520;15.106;2023-09-30T07:28:15;22.20;;;10.07;;
54555;SDS011;57291;37.520;15.106;2023-09-30T07:30:43;19.73;;;10.07;;
54555;SDS011;57291;37.520;15.106;2023-09-30T07:33:11;18.95;;;10.10;;
54555;SDS011;57291;37.520;15.106;2023-09-30T07:35:38;19.77;;;9.90;;
54555;SDS011;57291;37.520;15.106;2023-09-30T07:38:06;20.98;;;10.40;;
54555;SDS011;57291;37.520;15.106;2023-09-30T07:40:33;20.23;;;10.80;;
54555;SDS011;57291;37.520;15.106;2023-09-30T07:43:00;20.23;;;10.40;;
54555;SDS011;57291;37.520;15.106;2023-09-30T07:45:27;17.13;;;10.02;;
54555;SDS011;57291;37.520;15.106;2023-09-30T07:47:55;16.30;;;10.10;;
54555;SDS011;57291;37.520;15.106;2023-09-30T07:50:22;17.40;;;9.77;;
54555;SDS011;57291;37.520;15.106;2023-09-30T07:52:49;17.35;;;9.85;;
54555;SDS011;57291;37.520;15.106;2023-09-30T07:55:16;16.63;;;10.07;;
54555;SDS011;57291;37.520;15.106;2023-09-30T07:57:43;17.85;;;10.95;;
54555;SDS011;57291;37.520;15.106;2023-09-30T08:00:11;20.55;;;10.40;;
54555;SDS011;57291;37.520;15.106;2023-09-30T08:02:43;17.48;;;9.52;;
54555;SDS011;57291;37.520;15.106;2023-09-30T08:05:11;16.90;;;9.25;;
54555;SDS011;57291;37.520;15.106;2023-09-30T08:07:38;17.98;;;10.20;;
54555;SDS011;57291;37.520;15.106;2023-09-30T08:10:06;15.30;;;9.43;;
54555;SDS011;57291;37.520;15.106;2023-09-30T08:12:39;16.67;;;9.70;;
54555;SDS011;57291;37.520;15.106;2023-09-30T08:15:08;16.30;;;9.32;;
54555;SDS011;57291;37.520;15.106;2023-09-30T08:17:39;17.25;;;10.82;;
54555;SDS011;57291;37.520;15.106;2023-09-30T08:20:06;16.20;;;10.93;;
54555;SDS011;57291;37.520;15.106;2023-09-30T08:22:36;15.18;;;11.35;;
54555;SDS011;57291;37.520;15.106;2023-09-30T08:25:04;18.20;;;11.50;;
54555;SDS011;57291;37.520;15.106;2023-09-30T08:27:33;20.88;;;12.38;;
54555;SDS011;57291;37.520;15.106;2023-09-30T08:30:01;15.85;;;11.85;;
54555;SDS011;57291;37.520;15.106;2023-09-30T08:32:33;19.23;;;11.43;;
54555;SDS011;57291;37.520;15.106;2023-09-30T08:35:03;21.38;;;11.25;;
54555;SDS011;57291;37.520;15.106;2023-09-30T08:37:31;20.27;;;11.57;;
54555;SDS011;57291;37.520;15.106;2023-09-30T08:39:58;17.33;;;11.75;;
54555;SDS011;57291;37.520;15.106;2023-09-30T08:42:26;16.80;;;12.30;;
54555;SDS011;57291;37.520;15.106;2023-09-30T08:45:00;20.08;;;12.63;;
54555;SDS011;57291;37.520;15.106;2023-09-30T08:47:27;15.90;;;11.70;;
54555;SDS011;57291;37.520;15.106;2023-09-30T08:49:56;17.65;;;11.63;;
54555;SDS011;57291;37.520;15.106;2023-09-30T08:52:33;20.83;;;12.77;;
54555;SDS011;57291;37.520;15.106;2023-09-30T08:55:08;20.42;;;12.38;;
54555;SDS011;57291;37.520;15.106;2023-09-30T08:57:37;18.38;;;12.57;;
54555;SDS011;57291;37.520;15.106;2023-09-30T09:00:12;16.60;;;11.57;;
54555;SDS011;57291;37.520;15.106;2023-09-30T09:02:41;21.27;;;12.35;;
54555;SDS011;57291;37.520;15.106;2023-09-30T09:05:09;17.83;;;12.30;;
54555;SDS011;57291;37.520;15.106;2023-09-30T09:07:37;18.95;;;11.98;;
54555;SDS011;57291;37.520;15.106;2023-09-30T09:10:09;17.55;;;12.57;;
54555;SDS011;57291;37.520;15.106;2023-09-30T09:12:39;18.50;;;11.25;;
54555;SDS011;57291;37.520;15.106;2023-09-30T09:15:19;18.73;;;12.00;;
54555;SDS011;57291;37.520;15.106;2023-09-30T09:17:48;17.38;;;12.32;;
54555;SDS011;57291;37.520;15.106;2023-09-30T09:20:18;19.55;;;12.50;;
54555;SDS011;57291;37.520;15.106;2023-09-30T09:22:50;21.38;;;12.13;;
54555;SDS011;57291;37.520;15.106;2023-09-30T09:25:23;16.60;;;11.38;;
54555;SDS011;57291;37.520;15.106;2023-09-30T09:27:54;18.70;;;12.20;;
54555;SDS011;57291;37.520;15.106;2023-09-30T09:30:25;18.50;;;12.75;;
54555;SDS011;57291;37.520;15.106;2023-09-30T09:35:34;21.20;;;13.10;;
54555;SDS011;57291;37.520;15.106;2023-09-30T09:38:06;15.90;;;11.40;;
54555;SDS011;57291;37.520;15.106;2023-09-30T09:40:35;19.67;;;12.83;;
54555;SDS011;57291;37.520;15.106;2023-09-30T09:43:03;17.70;;;12.07;;
54555;SDS011;57291;37.520;15.106;2023-09-30T09:45:33;20.88;;;13.60;;
54555;SDS011;57291;37.520;15.106;2023-09-30T09:48:02;19.17;;;12.90;;
54555;SDS011;57291;37.520;15.106;2023-09-30T09:50:32;21.15;;;12.65;;
54555;SDS011;57291;37.520;15.106;2023-09-30T09:52:59;24.75;;;13.65;;
54555;SDS011;57291;37.520;15.106;2023-09-30T09:55:27;20.08;;;12.75;;
54555;SDS011;57291;37.520;15.106;2023-09-30T09:57:54;21.15;;;13.85;;
54555;SDS011;57291;37.520;15.106;2023-09-30T10:00:25;19.13;;;13.27;;
54555;SDS011;57291;37.520;15.106;2023-09-30T10:02:53;20.75;;;13.07;;
54555;SDS011;57291;37.520;15.106;2023-09-30T10:05:20;20.25;;;13.23;;
54555;SDS011;57291;37.520;15.106;2023-09-30T10:10:23;19.17;;;13.68;;
54555;SDS011;57291;37.520;15.106;2023-09-30T10:12:51;18.27;;;13.98;;
54555;SDS011;57291;37.520;15.106;2023-09-30T10:17:58;20.77;;;14.02;;
54555;SDS011;57291;37.520;15.106;2023-09-30T10:20:31;20.58;;;13.43;;
54555;SDS011;57291;37.520;15.106;2023-09-30T10:25:45;19.67;;;13.68;;
54555;SDS011;57291;37.520;15.106;2023-09-30T10:31:09;22.48;;;14.45;;
54555;SDS011;57291;37.520;15.106;2023-09-30T10:36:35;24.55;;;16.02;;
54555;SDS011;57291;37.520;15.106;2023-09-30T10:39:10;20.15;;;14.00;;
54555;SDS011;57291;37.520;15.106;2023-09-30T10:47:00;24.33;;;16.25;;
54555;SDS011;57291;37.520;15.106;2023-09-30T10:49:48;23.15;;;14.45;;
54555;SDS011;57291;37.520;15.106;2023-09-30T10:52:24;21.73;;;14.98;;
54555;SDS011;57291;37.520;15.106;2023-09-30T10:54:52;21.58;;;14.60;;
54555;SDS011;57291;37.520;15.106;2023-09-30T10:57:26;22.85;;;16.27;;
54555;SDS011;57291;37.520;15.106;2023-09-30T11:00:12;22.95;;;15.73;;
54555;SDS011;57291;37.520;15.106;2023-09-30T11:02:49;21.30;;;14.57;;
54555;SDS011;57291;37.520;15.106;2023-09-30T11:05:20;23.23;;;15.13;;
54555;SDS011;57291;37.520;15.106;2023-09-30T11:08:06;20.67;;;15.32;;
54555;SDS011;57291;37.520;15.106;2023-09-30T11:10:34;18.48;;;14.27;;
54555;SDS011;57291;37.520;15.106;2023-09-30T11:13:02;22.55;;;16.23;;
54555;SDS011;57291;37.520;15.106;2023-09-30T11:15:30;19.48;;;14.73;;
54555;SDS011;57291;37.520;15.106;2023-09-30T11:18:12;18.52;;;15.50;;
54555;SDS011;57291;37.520;15.106;2023-09-30T11:20:43;22.70;;;15.43;;
54555;SDS011;57291;37.520;15.106;2023-09-30T11:23:11;21.80;;;15.82;;
54555;SDS011;57291;37.520;15.106;2023-09-30T11:25:39;20.88;;;14.60;;
54555;SDS011;57291;37.520;15.106;2023-09-30T11:28:15;24.08;;;16.77;;
54555;SDS011;57291;37.520;15.106;2023-09-30T11:30:56;23.48;;;16.42;;
54555;SDS011;57291;37.520;15.106;2023-09-30T11:33:24;22.20;;;16.00;;
54555;SDS011;57291;37.520;15.106;2023-09-30T11:36:10;22.33;;;15.63;;
54555;SDS011;57291;37.520;15.106;2023-09-30T11:38:37;21.40;;;14.52;;
54555;SDS011;57291;37.520;15.106;2023-09-30T11:41:11;24.52;;;15.95;;
54555;SDS011;57291;37.520;15.106;2023-09-30T11:43:39;20.23;;;14.80;;
54555;SDS011;57291;37.520;15.106;2023-09-30T11:46:27;22.15;;;15.82;;
54555;SDS011;57291;37.520;15.106;2023-09-30T11:48:59;29.33;;;16.13;;
54555;SDS011;57291;37.520;15.106;2023-09-30T11:51:28;24.90;;;15.45;;
54555;SDS011;57291;37.520;15.106;2023-09-30T11:53:56;24.70;;;15.05;;
54555;SDS011;57291;37.520;15.106;2023-09-30T11:56:26;21.23;;;15.60;;
54555;SDS011;57291;37.520;15.106;2023-09-30T11:58:56;22.60;;;16.25;;
54555;SDS011;57291;37.520;15.106;2023-09-30T12:01:24;22.95;;;15.15;;
54555;SDS011;57291;37.520;15.106;2023-09-30T12:03:52;26.05;;;15.80;;
54555;SDS011;57291;37.520;15.106;2023-09-30T12:06:24;20.77;;;14.80;;
54555;SDS011;57291;37.520;15.106;2023-09-30T12:08:51;21.08;;;15.38;;
54555;SDS011;57291;37.520;15.106;2023-09-30T12:11:19;21.13;;;15.18;;
54555;SDS011;57291;37.520;15.106;2023-09-30T12:13:46;24.33;;;15.52;;
54555;SDS011;57291;37.520;15.106;2023-09-30T12:16:15;22.05;;;15.25;;
54555;SDS011;57291;37.520;15.106;2023-09-30T12:18:43;22.33;;;13.32;;
54555;SDS011;57291;37.520;15.106;2023-09-30T12:21:12;20.65;;;14.00;;
54555;SDS011;57291;37.520;15.106;2023-09-30T12:23:47;20.55;;;14.05;;
54555;SDS011;57291;37.520;15.106;2023-09-30T12:26:15;19.77;;;13.75;;
54555;SDS011;57291;37.520;15.106;2023-09-30T12:28:46;18.77;;;13.98;;
54555;SDS011;57291;37.520;15.106;2023-09-30T12:31:13;17.17;;;13.10;;
54555;SDS011;57291;37.520;15.106;2023-09-30T12:33:42;21.63;;;13.48;;
54555;SDS011;57291;37.520;15.106;2023-09-30T12:36:10;20.80;;;12.93;;
54555;SDS011;57291;37.520;15.106;2023-09-30T12:38:39;19.98;;;13.90;;
54555;SDS011;57291;37.520;15.106;2023-09-30T12:41:06;22.55;;;14.10;;
54555;SDS011;57291;37.520;15.106;2023-09-30T12:43:34;22.63;;;13.57;;
54555;SDS011;57291;37.520;15.106;2023-09-30T12:46:01;20.35;;;13.85;;
54555;SDS011;57291;37.520;15.106;2023-09-30T12:48:29;16.40;;;11.88;;
54555;SDS011;57291;37.520;15.106;2023-09-30T12:50:56;18.98;;;11.13;;
54555;SDS011;57291;37.520;15.106;2023-09-30T12:53:24;13.40;;;9.30;;
54555;SDS011;57291;37.520;15.106;2023-09-30T12:55:51;16.85;;;8.45;;
54555;SDS011;57291;37.520;15.106;2023-09-30T12:58:18;17.70;;;9.82;;
54555;SDS011;57291;37.520;15.106;2023-09-30T13:00:45;14.13;;;9.05;;
54555;SDS011;57291;37.520;15.106;2023-09-30T13:03:12;16.52;;;9.05;;
54555;SDS011;57291;37.520;15.106;2023-09-30T13:05:42;18.98;;;10.30;;
54555;SDS011;57291;37.520;15.106;2023-09-30T13:08:09;16.52;;;9.60;;
54555;SDS011;57291;37.520;15.106;2023-09-30T13:10:37;15.98;;;10.00;;
54555;SDS011;57291;37.520;15.106;2023-09-30T13:13:05;15.82;;;9.93;;
54555;SDS011;57291;37.520;15.106;2023-09-30T13:15:32;19.98;;;9.63;;
54555;SDS011;57291;37.520;15.106;2023-09-30T13:18:00;16.40;;;10.35;;
54555;SDS011;57291;37.520;15.106;2023-09-30T13:20:29;15.20;;;9.35;;
54555;SDS011;57291;37.520;15.106;2023-09-30T13:22:56;14.93;;;9.95;;
54555;SDS011;57291;37.520;15.106;2023-09-30T13:25:24;19.65;;;10.00;;
54555;SDS011;57291;37.520;15.106;2023-09-30T13:27:51;15.73;;;9.38;;
54555;SDS011;57291;37.520;15.106;2023-09-30T13:30:18;14.93;;;9.85;;
54555;SDS011;57291;37.520;15.106;2023-09-30T13:32:45;15.30;;;9.52;;
54555;SDS011;57291;37.520;15.106;2023-09-30T13:35:13;14.65;;;9.43;;
54555;SDS011;57291;37.520;15.106;2023-09-30T13:37:40;18.02;;;9.77;;
54555;SDS011;57291;37.520;15.106;2023-09-30T13:40:10;15.25;;;9.20;;
54555;SDS011;57291;37.520;15.106;2023-09-30T13:42:39;12.57;;;9.63;;
54555;SDS011;57291;37.520;15.106;2023-09-30T13:45:07;16.35;;;10.52;;
54555;SDS011;57291;37.520;15.106;2023-09-30T13:47:36;19.88;;;10.38;;
54555;SDS011;57291;37.520;15.106;2023-09-30T13:50:03;15.50;;;10.25;;
54555;SDS011;57291;37.520;15.106;2023-09-30T13:52:33;13.45;;;8.63;;
54555;SDS011;57291;37.520;15.106;2023-09-30T13:55:02;16.83;;;9.32;;
54555;SDS011;57291;37.520;15.106;2023-09-30T13:57:31;12.38;;;9.65;;
54555;SDS011;57291;37.520;15.106;2023-09-30T13:59:59;16.15;;;10.02;;
54555;SDS011;57291;37.520;15.106;2023-09-30T14:02:26;15.65;;;9.95;;
54555;SDS011;57291;37.520;15.106;2023-09-30T14:04:54;16.45;;;10.00;;
54555;SDS011;57291;37.520;15.106;2023-09-30T14:07:22;14.60;;;10.18;;
54555;SDS011;57291;37.520;15.106;2023-09-30T14:09:49;17.27;;;9.50;;
54555;SDS011;57291;37.520;15.106;2023-09-30T14:12:19;14.85;;;8.93;;
54555;SDS011;57291;37.520;15.106;2023-09-30T14:14:46;15.60;;;9.43;;
54555;SDS011;57291;37.520;15.106;2023-09-30T14:17:13;16.45;;;8.82;;
54555;SDS011;57291;37.520;15.106;2023-09-30T14:19:41;16.38;;;10.65;;
54555;SDS011;57291;37.520;15.106;2023-09-30T14:22:09;15.77;;;9.80;;
54555;SDS011;57291;37.520;15.106;2023-09-30T14:24:36;15.05;;;10.27;;
54555;SDS011;57291;37.520;15.106;2023-09-30T14:27:03;15.93;;;9.95;;
54555;SDS011;57291;37.520;15.106;2023-09-30T14:29:31;13.00;;;9.60;;
54555;SDS011;57291;37.520;15.106;2023-09-30T14:31:59;16.52;;;9.05;;
54555;SDS011;57291;37.520;15.106;2023-09-30T14:34:26;16.30;;;10.20;;
54555;SDS011;57291;37.520;15.106;2023-09-30T14:36:53;15.93;;;9.60;;
54555;SDS011;57291;37.520;15.106;2023-09-30T14:39:20;14.63;;;8.90;;
54555;SDS011;57291;37.520;15.106;2023-09-30T14:41:47;16.30;;;9.82;;
54555;SDS011;57291;37.520;15.106;2023-09-30T14:44:14;15.50;;;9.73;;
54555;SDS011;57291;37.520;15.106;2023-09-30T14:46:42;15.15;;;10.18;;
54555;SDS011;57291;37.520;15.106;2023-09-30T14:49:10;19.77;;;9.98;;
54555;SDS011;57291;37.520;15.106;2023-09-30T14:51:37;12.70;;;9.30;;